sensor_id;sensor_type;location;lat;lon;timestamp;temperature;humidity
42097;DHT22;27754;45.414;11.084;2023-03-12T00:00:11;12.40;58.80
42097;DHT22;27754;45.414;11.084;2023-03-12T00:02:38;12.40;58.40
42097;DHT22;27754;45.414;11.084;2023-03-12T00:05:05;12.40;58.00
42097;DHT22;27754;45.414;11.084;2023-03-12T00:07:32;12.30;58.50
42097;DHT22;27754;45.414;11.084;2023-03-12T00:10:04;12.30;58.80
42097;DHT22;27754;45.414;11.084;2023-03-12T00:12:31;12.20;59.50
42097;DHT22;27754;45.414;11.084;2023-03-12T00:14:58;12.10;59.80
42097;DHT22;27754;45.414;11.084;2023-03-12T00:17:25;12.00;60.00
42097;DHT22;27754;45.414;11.084;2023-03-12T00:19:52;12.00;60.10
42097;DHT22;27754;45.414;11.084;2023-03-12T00:22:19;12.00;60.20
42097;DHT22;27754;45.414;11.084;2023-03-12T00:24:53;11.90;60.40
42097;DHT22;27754;45.414;11.084;2023-03-12T00:27:20;11.90;60.60
42097;DHT22;27754;45.414;11.084;2023-03-12T00:29:47;11.90;60.80
42097;DHT22;27754;45.414;11.084;2023-03-12T00:32:14;11.90;61.00
42097;DHT22;27754;45.414;11.084;2023-03-12T00:34:41;11.80;61.30
42097;DHT22;27754;45.414;11.084;2023-03-12T00:37:08;11.80;61.70
42097;DHT22;27754;45.414;11.084;2023-03-12T00:39:35;11.80;62.40
42097;DHT22;27754;45.414;11.084;2023-03-12T00:42:03;11.80;63.00
42097;DHT22;27754;45.414;11.084;2023-03-12T00:44:29;11.80;63.50
42097;DHT22;27754;45.414;11.084;2023-03-12T00:47:05;11.80;63.80
42097;DHT22;27754;45.414;11.084;2023-03-12T00:49:32;11.80;64.30
42097;DHT22;27754;45.414;11.084;2023-03-12T00:51:59;11.80;64.80
42097;DHT22;27754;45.414;11.084;2023-03-12T00:54:26;11.80;65.20
42097;DHT22;27754;45.414;11.084;2023-03-12T00:56:53;11.70;65.50
42097;DHT22;27754;45.414;11.084;2023-03-12T00:59:20;11.70;65.70
42097;DHT22;27754;45.414;11.084;2023-03-12T01:01:47;11.80;65.80
42097;DHT22;27754;45.414;11.084;2023-03-12T01:04:15;11.70;66.20
42097;DHT22;27754;45.414;11.084;2023-03-12T01:06:43;11.70;66.50
42097;DHT22;27754;45.414;11.084;2023-03-12T01:09:10;11.70;66.80
42097;DHT22;27754;45.414;11.084;2023-03-12T01:11:37;11.70;67.20
42097;DHT22;27754;45.414;11.084;2023-03-12T01:14:06;11.70;67.60
42097;DHT22;27754;45.414;11.084;2023-03-12T01:16:34;11.60;68.30
42097;DHT22;27754;45.414;11.084;2023-03-12T01:19:02;11.60;68.60
42097;DHT22;27754;45.414;11.084;2023-03-12T01:21:29;11.60;69.00
42097;DHT22;27754;45.414;11.084;2023-03-12T01:23:57;11.60;69.30
42097;DHT22;27754;45.414;11.084;2023-03-12T01:26:24;11.60;69.70
42097;DHT22;27754;45.414;11.084;2023-03-12T01:28:51;11.60;69.80
42097;DHT22;27754;45.414;11.084;2023-03-12T01:31:18;11.70;69.80
42097;DHT22;27754;45.414;11.084;2023-03-12T01:33:50;11.70;69.60
42097;DHT22;27754;45.414;11.084;2023-03-12T01:36:27;11.70;69.30
42097;DHT22;27754;45.414;11.084;2023-03-12T01:38:57;11.80;68.80
42097;DHT22;27754;45.414;11.084;2023-03-12T01:44:13;11.70;68.10
42097;DHT22;27754;45.414;11.084;2023-03-12T01:46:42;11.80;67.60
42097;DHT22;27754;45.414;11.084;2023-03-12T01:49:31;11.80;67.60
42097;DHT22;27754;45.414;11.084;2023-03-12T01:52:24;11.80;67.40
42097;DHT22;27754;45.414;11.084;2023-03-12T01:55:02;11.80;67.50
42097;DHT22;27754;45.414;11.084;2023-03-12T01:57:47;11.80;67.60
42097;DHT22;27754;45.414;11.084;2023-03-12T02:00:18;11.80;67.70
42097;DHT22;27754;45.414;11.084;2023-03-12T02:02:48;11.80;67.80
42097;DHT22;27754;45.414;11.084;2023-03-12T02:05:35;11.80;67.80
42097;DHT22;27754;45.414;11.084;2023-03-12T02:08:06;11.80;68.00
42097;DHT22;27754;45.414;11.084;2023-03-12T02:10:33;11.80;67.80
42097;DHT22;27754;45.414;11.084;2023-03-12T02:13:02;11.80;67.80
42097;DHT22;27754;45.414;11.084;2023-03-12T02:15:30;11.70;68.00
42097;DHT22;27754;45.414;11.084;2023-03-12T02:17:57;11.70;67.90
42097;DHT22;27754;45.414;11.084;2023-03-12T02:20:33;11.70;67.90
42097;DHT22;27754;45.414;11.084;2023-03-12T02:23:09;11.60;68.10
42097;DHT22;27754;45.414;11.084;2023-03-12T02:25:45;11.60;68.00
42097;DHT22;27754;45.414;11.084;2023-03-12T02:28:15;11.60;67.90
42097;DHT22;27754;45.414;11.084;2023-03-12T02:30:49;11.60;68.00
42097;DHT22;27754;45.414;11.084;2023-03-12T02:33:17;11.60;67.90
42097;DHT22;27754;45.414;11.084;2023-03-12T02:35:46;11.60;67.70
42097;DHT22;27754;45.414;11.084;2023-03-12T02:38:36;11.60;67.20
42097;DHT22;27754;45.414;11.084;2023-03-12T02:41:26;11.60;67.00
42097;DHT22;27754;45.414;11.084;2023-03-12T02:44:10;11.60;67.00
42097;DHT22;27754;45.414;11.084;2023-03-12T02:46:47;11.60;66.60
42097;DHT22;27754;45.414;11.084;2023-03-12T02:49:15;11.60;65.80
42097;DHT22;27754;45.414;11.084;2023-03-12T02:51:44;11.70;64.60
42097;DHT22;27754;45.414;11.084;2023-03-12T02:54:13;11.80;63.70
42097;DHT22;27754;45.414;11.084;2023-03-12T02:56:40;11.80;62.90
42097;DHT22;27754;45.414;11.084;2023-03-12T02:59:09;11.90;62.60
42097;DHT22;27754;45.414;11.084;2023-03-12T03:01:40;11.80;62.20
42097;DHT22;27754;45.414;11.084;2023-03-12T03:04:09;11.80;61.80
42097;DHT22;27754;45.414;11.084;2023-03-12T03:06:39;11.80;61.70
42097;DHT22;27754;45.414;11.084;2023-03-12T03:09:06;11.80;61.60
42097;DHT22;27754;45.414;11.084;2023-03-12T03:11:34;11.80;60.80
42097;DHT22;27754;45.414;11.084;2023-03-12T03:14:03;11.80;60.30
42097;DHT22;27754;45.414;11.084;2023-03-12T03:16:30;11.80;60.10
42097;DHT22;27754;45.414;11.084;2023-03-12T03:18:58;11.80;60.20
42097;DHT22;27754;45.414;11.084;2023-03-12T03:21:25;11.80;60.40
42097;DHT22;27754;45.414;11.084;2023-03-12T03:23:52;11.80;60.40
42097;DHT22;27754;45.414;11.084;2023-03-12T03:26:21;11.80;60.30
42097;DHT22;27754;45.414;11.084;2023-03-12T03:28:48;11.80;60.30
42097;DHT22;27754;45.414;11.084;2023-03-12T03:31:16;11.80;60.20
42097;DHT22;27754;45.414;11.084;2023-03-12T03:33:44;11.70;60.20
42097;DHT22;27754;45.414;11.084;2023-03-12T03:36:12;11.70;60.30
42097;DHT22;27754;45.414;11.084;2023-03-12T03:38:48;11.70;60.10
42097;DHT22;27754;45.414;11.084;2023-03-12T03:41:18;11.70;60.20
42097;DHT22;27754;45.414;11.084;2023-03-12T03:43:46;11.70;60.20
42097;DHT22;27754;45.414;11.084;2023-03-12T03:46:29;11.70;60.30
42097;DHT22;27754;45.414;11.084;2023-03-12T03:49:01;11.60;60.50
42097;DHT22;27754;45.414;11.084;2023-03-12T03:51:29;11.60;60.60
42097;DHT22;27754;45.414;11.084;2023-03-12T03:54:02;11.60;60.80
42097;DHT22;27754;45.414;11.084;2023-03-12T03:56:29;11.50;60.90
42097;DHT22;27754;45.414;11.084;2023-03-12T03:58:58;11.50;61.20
42097;DHT22;27754;45.414;11.084;2023-03-12T04:01:26;11.40;61.20
42097;DHT22;27754;45.414;11.084;2023-03-12T04:03:54;11.40;61.50
42097;DHT22;27754;45.414;11.084;2023-03-12T04:06:22;11.40;61.60
42097;DHT22;27754;45.414;11.084;2023-03-12T04:08:49;11.40;61.70
42097;DHT22;27754;45.414;11.084;2023-03-12T04:11:20;11.30;61.90
42097;DHT22;27754;45.414;11.084;2023-03-12T04:13:47;11.30;61.90
42097;DHT22;27754;45.414;11.084;2023-03-12T04:16:17;11.30;62.00
42097;DHT22;27754;45.414;11.084;2023-03-12T04:18:45;11.30;62.20
42097;DHT22;27754;45.414;11.084;2023-03-12T04:21:14;11.30;62.30
42097;DHT22;27754;45.414;11.084;2023-03-12T04:23:42;11.20;62.50
42097;DHT22;27754;45.414;11.084;2023-03-12T04:26:11;11.20;62.60
42097;DHT22;27754;45.414;11.084;2023-03-12T04:28:38;11.20;62.70
42097;DHT22;27754;45.414;11.084;2023-03-12T04:31:07;11.10;63.00
42097;DHT22;27754;45.414;11.084;2023-03-12T04:33:40;11.10;63.20
42097;DHT22;27754;45.414;11.084;2023-03-12T04:36:08;11.00;63.30
42097;DHT22;27754;45.414;11.084;2023-03-12T04:38:38;11.00;63.40
42097;DHT22;27754;45.414;11.084;2023-03-12T04:41:09;10.90;63.40
42097;DHT22;27754;45.414;11.084;2023-03-12T04:43:41;10.90;63.60
42097;DHT22;27754;45.414;11.084;2023-03-12T04:46:09;10.90;63.70
42097;DHT22;27754;45.414;11.084;2023-03-12T04:48:37;10.80;63.60
42097;DHT22;27754;45.414;11.084;2023-03-12T04:51:04;10.80;63.80
42097;DHT22;27754;45.414;11.084;2023-03-12T04:53:32;10.80;63.80
42097;DHT22;27754;45.414;11.084;2023-03-12T04:55:59;10.80;63.90
42097;DHT22;27754;45.414;11.084;2023-03-12T04:58:27;10.70;63.90
42097;DHT22;27754;45.414;11.084;2023-03-12T05:00:54;10.70;64.00
42097;DHT22;27754;45.414;11.084;2023-03-12T05:03:22;10.70;64.20
42097;DHT22;27754;45.414;11.084;2023-03-12T05:05:49;10.70;64.20
42097;DHT22;27754;45.414;11.084;2023-03-12T05:08:16;10.70;64.30
42097;DHT22;27754;45.414;11.084;2023-03-12T05:10:43;10.60;64.60
42097;DHT22;27754;45.414;11.084;2023-03-12T05:13:21;10.60;64.70
42097;DHT22;27754;45.414;11.084;2023-03-12T05:15:51;10.50;65.10
42097;DHT22;27754;45.414;11.084;2023-03-12T05:18:19;10.40;65.40
42097;DHT22;27754;45.414;11.084;2023-03-12T05:21:04;10.40;65.50
42097;DHT22;27754;45.414;11.084;2023-03-12T05:23:32;10.40;65.60
42097;DHT22;27754;45.414;11.084;2023-03-12T05:26:00;10.40;65.50
42097;DHT22;27754;45.414;11.084;2023-03-12T05:28:28;10.40;65.60
42097;DHT22;27754;45.414;11.084;2023-03-12T05:30:59;10.40;65.70
42097;DHT22;27754;45.414;11.084;2023-03-12T05:33:27;10.40;65.80
42097;DHT22;27754;45.414;11.084;2023-03-12T05:35:56;10.40;65.90
42097;DHT22;27754;45.414;11.084;2023-03-12T05:38:25;10.40;66.00
42097;DHT22;27754;45.414;11.084;2023-03-12T05:40:54;10.30;66.00
42097;DHT22;27754;45.414;11.084;2023-03-12T05:43:22;10.30;66.20
42097;DHT22;27754;45.414;11.084;2023-03-12T05:45:50;10.30;66.30
42097;DHT22;27754;45.414;11.084;2023-03-12T05:48:18;10.30;66.20
42097;DHT22;27754;45.414;11.084;2023-03-12T05:50:45;10.30;66.30
42097;DHT22;27754;45.414;11.084;2023-03-12T05:53:12;10.30;66.50
42097;DHT22;27754;45.414;11.084;2023-03-12T05:55:41;10.30;66.80
42097;DHT22;27754;45.414;11.084;2023-03-12T05:58:08;10.30;66.70
42097;DHT22;27754;45.414;11.084;2023-03-12T06:00:37;10.40;66.90
42097;DHT22;27754;45.414;11.084;2023-03-12T06:03:06;10.30;66.70
42097;DHT22;27754;45.414;11.084;2023-03-12T06:05:35;10.30;66.50
42097;DHT22;27754;45.414;11.084;2023-03-12T06:08:03;10.30;66.60
42097;DHT22;27754;45.414;11.084;2023-03-12T06:10:31;10.30;66.60
42097;DHT22;27754;45.414;11.084;2023-03-12T06:12:57;10.40;66.70
42097;DHT22;27754;45.414;11.084;2023-03-12T06:15:24;10.40;66.60
42097;DHT22;27754;45.414;11.084;2023-03-12T06:17:51;10.50;66.20
42097;DHT22;27754;45.414;11.084;2023-03-12T06:20:18;10.60;66.30
42097;DHT22;27754;45.414;11.084;2023-03-12T06:22:45;10.80;66.00
42097;DHT22;27754;45.414;11.084;2023-03-12T06:25:13;10.80;65.60
42097;DHT22;27754;45.414;11.084;2023-03-12T06:27:40;11.00;65.10
42097;DHT22;27754;45.414;11.084;2023-03-12T06:30:08;11.00;65.20
42097;DHT22;27754;45.414;11.084;2023-03-12T06:32:35;11.10;65.00
42097;DHT22;27754;45.414;11.084;2023-03-12T06:35:02;11.30;64.50
42097;DHT22;27754;45.414;11.084;2023-03-12T06:37:31;11.40;64.30
42097;DHT22;27754;45.414;11.084;2023-03-12T06:39:57;11.40;64.20
42097;DHT22;27754;45.414;11.084;2023-03-12T06:42:24;11.50;64.10
42097;DHT22;27754;45.414;11.084;2023-03-12T06:44:52;11.70;63.70
42097;DHT22;27754;45.414;11.084;2023-03-12T06:47:19;11.70;63.50
42097;DHT22;27754;45.414;11.084;2023-03-12T06:49:46;11.70;63.50
42097;DHT22;27754;45.414;11.084;2023-03-12T06:52:13;11.80;63.80
42097;DHT22;27754;45.414;11.084;2023-03-12T06:54:40;11.80;64.10
42097;DHT22;27754;45.414;11.084;2023-03-12T06:57:07;11.80;63.60
42097;DHT22;27754;45.414;11.084;2023-03-12T06:59:34;11.90;63.60
42097;DHT22;27754;45.414;11.084;2023-03-12T07:02:03;12.00;63.40
42097;DHT22;27754;45.414;11.084;2023-03-12T07:04:30;12.10;63.20
42097;DHT22;27754;45.414;11.084;2023-03-12T07:06:57;12.20;62.70
42097;DHT22;27754;45.414;11.084;2023-03-12T07:09:24;12.30;62.50
42097;DHT22;27754;45.414;11.084;2023-03-12T07:11:51;12.40;62.40
42097;DHT22;27754;45.414;11.084;2023-03-12T07:14:18;12.40;62.60
42097;DHT22;27754;45.414;11.084;2023-03-12T07:16:47;12.50;62.60
42097;DHT22;27754;45.414;11.084;2023-03-12T07:19:14;12.60;61.90
42097;DHT22;27754;45.414;11.084;2023-03-12T07:21:41;12.70;61.60
42097;DHT22;27754;45.414;11.084;2023-03-12T07:24:08;12.90;60.40
42097;DHT22;27754;45.414;11.084;2023-03-12T07:26:35;12.90;60.60
42097;DHT22;27754;45.414;11.084;2023-03-12T07:29:03;13.00;59.20
42097;DHT22;27754;45.414;11.084;2023-03-12T07:31:30;13.10;59.00
42097;DHT22;27754;45.414;11.084;2023-03-12T07:33:57;13.20;58.30
42097;DHT22;27754;45.414;11.084;2023-03-12T07:36:24;13.10;58.00
42097;DHT22;27754;45.414;11.084;2023-03-12T07:38:52;13.10;57.50
42097;DHT22;27754;45.414;11.084;2023-03-12T07:41:18;13.30;57.80
42097;DHT22;27754;45.414;11.084;2023-03-12T07:43:45;13.00;56.90
42097;DHT22;27754;45.414;11.084;2023-03-12T07:46:13;13.10;57.50
42097;DHT22;27754;45.414;11.084;2023-03-12T07:48:40;13.10;57.70
42097;DHT22;27754;45.414;11.084;2023-03-12T07:51:10;13.20;57.30
42097;DHT22;27754;45.414;11.084;2023-03-12T07:53:37;13.40;57.40
42097;DHT22;27754;45.414;11.084;2023-03-12T07:56:04;13.40;56.50
42097;DHT22;27754;45.414;11.084;2023-03-12T07:58:31;13.40;56.70
42097;DHT22;27754;45.414;11.084;2023-03-12T08:00:59;13.40;56.90
42097;DHT22;27754;45.414;11.084;2023-03-12T08:03:26;13.30;55.90
42097;DHT22;27754;45.414;11.084;2023-03-12T08:06:01;13.30;57.40
42097;DHT22;27754;45.414;11.084;2023-03-12T08:08:29;13.40;56.20
42097;DHT22;27754;45.414;11.084;2023-03-12T08:10:57;13.10;56.10
42097;DHT22;27754;45.414;11.084;2023-03-12T08:13:25;13.30;57.00
42097;DHT22;27754;45.414;11.084;2023-03-12T08:15:53;13.40;56.20
42097;DHT22;27754;45.414;11.084;2023-03-12T08:18:20;13.20;56.40
42097;DHT22;27754;45.414;11.084;2023-03-12T08:20:51;13.40;57.00
42097;DHT22;27754;45.414;11.084;2023-03-12T08:23:19;13.30;56.60
42097;DHT22;27754;45.414;11.084;2023-03-12T08:25:50;13.40;57.00
42097;DHT22;27754;45.414;11.084;2023-03-12T08:28:18;13.30;56.80
42097;DHT22;27754;45.414;11.084;2023-03-12T08:30:53;13.40;56.40
42097;DHT22;27754;45.414;11.084;2023-03-12T08:33:21;13.30;56.30
42097;DHT22;27754;45.414;11.084;2023-03-12T08:35:48;13.40;56.80
42097;DHT22;27754;45.414;11.084;2023-03-12T08:38:15;13.40;56.60
42097;DHT22;27754;45.414;11.084;2023-03-12T08:40:42;13.40;56.30
42097;DHT22;27754;45.414;11.084;2023-03-12T08:43:10;13.50;56.10
42097;DHT22;27754;45.414;11.084;2023-03-12T08:45:37;13.50;55.80
42097;DHT22;27754;45.414;11.084;2023-03-12T08:48:05;13.70;55.60
42097;DHT22;27754;45.414;11.084;2023-03-12T08:50:32;13.70;55.40
42097;DHT22;27754;45.414;11.084;2023-03-12T08:53:22;13.80;55.60
42097;DHT22;27754;45.414;11.084;2023-03-12T08:55:52;13.70;55.90
42097;DHT22;27754;45.414;11.084;2023-03-12T08:58:20;13.70;55.10
42097;DHT22;27754;45.414;11.084;2023-03-12T09:00:47;13.80;55.60
42097;DHT22;27754;45.414;11.084;2023-03-12T09:03:14;13.90;55.10
42097;DHT22;27754;45.414;11.084;2023-03-12T09:05:43;13.80;54.20
42097;DHT22;27754;45.414;11.084;2023-03-12T09:08:11;13.90;54.20
42097;DHT22;27754;45.414;11.084;2023-03-12T09:10:38;13.90;54.30
42097;DHT22;27754;45.414;11.084;2023-03-12T09:13:05;14.10;53.80
42097;DHT22;27754;45.414;11.084;2023-03-12T09:15:32;14.30;53.30
42097;DHT22;27754;45.414;11.084;2023-03-12T09:17:59;14.20;52.90
42097;DHT22;27754;45.414;11.084;2023-03-12T09:20:26;14.20;53.30
42097;DHT22;27754;45.414;11.084;2023-03-12T09:22:53;14.30;52.70
42097;DHT22;27754;45.414;11.084;2023-03-12T09:25:20;14.40;52.20
42097;DHT22;27754;45.414;11.084;2023-03-12T09:27:48;14.40;51.90
42097;DHT22;27754;45.414;11.084;2023-03-12T09:30:18;14.20;52.40
42097;DHT22;27754;45.414;11.084;2023-03-12T09:32:45;14.40;51.60
42097;DHT22;27754;45.414;11.084;2023-03-12T09:35:14;14.40;51.30
42097;DHT22;27754;45.414;11.084;2023-03-12T09:37:41;14.30;50.50
42097;DHT22;27754;45.414;11.084;2023-03-12T09:40:14;14.40;51.00
42097;DHT22;27754;45.414;11.084;2023-03-12T09:42:52;14.40;49.90
42097;DHT22;27754;45.414;11.084;2023-03-12T09:45:26;14.40;49.40
42097;DHT22;27754;45.414;11.084;2023-03-12T09:47:59;14.50;49.20
42097;DHT22;27754;45.414;11.084;2023-03-12T09:50:40;14.60;48.70
42097;DHT22;27754;45.414;11.084;2023-03-12T09:55:50;14.40;47.90
42097;DHT22;27754;45.414;11.084;2023-03-12T09:58:25;14.40;47.50
42097;DHT22;27754;45.414;11.084;2023-03-12T10:01:06;14.30;47.30
42097;DHT22;27754;45.414;11.084;2023-03-12T10:26:22;14.40;46.60
42097;DHT22;27754;45.414;11.084;2023-03-12T10:28:58;14.40;47.20
42097;DHT22;27754;45.414;11.084;2023-03-12T10:31:52;14.30;47.50
42097;DHT22;27754;45.414;11.084;2023-03-12T10:34:28;14.30;47.90
42097;DHT22;27754;45.414;11.084;2023-03-12T10:36:59;14.40;48.00
42097;DHT22;27754;45.414;11.084;2023-03-12T10:39:28;14.70;48.00
42097;DHT22;27754;45.414;11.084;2023-03-12T10:41:55;14.70;47.20
42097;DHT22;27754;45.414;11.084;2023-03-12T10:44:26;14.80;47.50
42097;DHT22;27754;45.414;11.084;2023-03-12T10:49:50;15.00;48.00
42097;DHT22;27754;45.414;11.084;2023-03-12T10:52:21;15.10;47.90
42097;DHT22;27754;45.414;11.084;2023-03-12T10:54:51;15.10;47.70
42097;DHT22;27754;45.414;11.084;2023-03-12T10:57:19;15.00;48.30
42097;DHT22;27754;45.414;11.084;2023-03-12T10:59:47;14.90;50.50
42097;DHT22;27754;45.414;11.084;2023-03-12T11:02:32;15.10;49.50
42097;DHT22;27754;45.414;11.084;2023-03-12T11:05:01;15.20;49.50
42097;DHT22;27754;45.414;11.084;2023-03-12T11:07:32;15.10;49.10
42097;DHT22;27754;45.414;11.084;2023-03-12T11:12:38;15.20;50.00
42097;DHT22;27754;45.414;11.084;2023-03-12T11:15:20;15.10;49.80
42097;DHT22;27754;45.414;11.084;2023-03-12T11:17:48;15.20;49.60
42097;DHT22;27754;45.414;11.084;2023-03-12T11:20:24;15.00;49.90
42097;DHT22;27754;45.414;11.084;2023-03-12T11:22:51;15.10;50.80
42097;DHT22;27754;45.414;11.084;2023-03-12T11:25:26;15.00;49.90
42097;DHT22;27754;45.414;11.084;2023-03-12T11:27:59;15.20;50.60
42097;DHT22;27754;45.414;11.084;2023-03-12T11:30:35;15.20;49.80
42097;DHT22;27754;45.414;11.084;2023-03-12T11:33:04;15.00;50.20
42097;DHT22;27754;45.414;11.084;2023-03-12T11:53:25;15.60;49.20
42097;DHT22;27754;45.414;11.084;2023-03-12T12:04:47;15.50;49.00
42097;DHT22;27754;45.414;11.084;2023-03-12T12:07:42;15.60;50.10
42097;DHT22;27754;45.414;11.084;2023-03-12T12:10:40;15.70;49.60
42097;DHT22;27754;45.414;11.084;2023-03-12T12:13:29;15.70;49.70
42097;DHT22;27754;45.414;11.084;2023-03-12T12:24:27;15.50;50.30
42097;DHT22;27754;45.414;11.084;2023-03-12T12:27:18;15.70;50.80
42097;DHT22;27754;45.414;11.084;2023-03-12T12:35:35;15.70;51.40
42097;DHT22;27754;45.414;11.084;2023-03-12T12:38:46;15.90;50.70
42097;DHT22;27754;45.414;11.084;2023-03-12T12:43:46;15.90;50.90
42097;DHT22;27754;45.414;11.084;2023-03-12T12:46:20;15.90;51.20
42097;DHT22;27754;45.414;11.084;2023-03-12T12:48:56;16.00;51.00
42097;DHT22;27754;45.414;11.084;2023-03-12T12:51:50;16.00;51.80
42097;DHT22;27754;45.414;11.084;2023-03-12T12:54:25;15.90;51.40
42097;DHT22;27754;45.414;11.084;2023-03-12T12:57:10;16.00;51.90
42097;DHT22;27754;45.414;11.084;2023-03-12T13:02:39;16.10;51.40
42097;DHT22;27754;45.414;11.084;2023-03-12T13:08:04;15.90;51.70
42097;DHT22;27754;45.414;11.084;2023-03-12T13:13:11;15.90;51.50
42097;DHT22;27754;45.414;11.084;2023-03-12T13:15:40;16.10;52.10
42097;DHT22;27754;45.414;11.084;2023-03-12T13:18:24;16.30;51.40
42097;DHT22;27754;45.414;11.084;2023-03-12T13:26:29;16.10;50.60
42097;DHT22;27754;45.414;11.084;2023-03-12T13:29:01;16.00;50.60
42097;DHT22;27754;45.414;11.084;2023-03-12T13:31:40;16.00;51.20
42097;DHT22;27754;45.414;11.084;2023-03-12T13:36:44;16.40;50.30
42097;DHT22;27754;45.414;11.084;2023-03-12T13:41:56;16.60;50.20
42097;DHT22;27754;45.414;11.084;2023-03-12T13:44:31;16.50;49.60
42097;DHT22;27754;45.414;11.084;2023-03-12T13:49:58;16.30;49.90
42097;DHT22;27754;45.414;11.084;2023-03-12T13:55:20;16.20;50.40
42097;DHT22;27754;45.414;11.084;2023-03-12T13:57:56;16.10;50.70
42097;DHT22;27754;45.414;11.084;2023-03-12T14:00:28;16.30;51.00
42097;DHT22;27754;45.414;11.084;2023-03-12T14:03:03;16.40;50.10
42097;DHT22;27754;45.414;11.084;2023-03-12T14:05:42;16.40;50.30
42097;DHT22;27754;45.414;11.084;2023-03-12T14:11:23;16.70;50.30
42097;DHT22;27754;45.414;11.084;2023-03-12T14:14:20;16.80;49.80
42097;DHT22;27754;45.414;11.084;2023-03-12T14:16:54;16.80;49.50
42097;DHT22;27754;45.414;11.084;2023-03-12T14:19:29;16.70;49.90
42097;DHT22;27754;45.414;11.084;2023-03-12T14:22:01;16.80;49.30
42097;DHT22;27754;45.414;11.084;2023-03-12T14:24:40;16.70;49.20
42097;DHT22;27754;45.414;11.084;2023-03-12T14:27:28;16.80;49.80
42097;DHT22;27754;45.414;11.084;2023-03-12T14:30:15;16.80;50.50
42097;DHT22;27754;45.414;11.084;2023-03-12T14:32:45;16.80;50.20
42097;DHT22;27754;45.414;11.084;2023-03-12T14:35:23;16.70;50.70
42097;DHT22;27754;45.414;11.084;2023-03-12T14:38:45;16.80;50.70
42097;DHT22;27754;45.414;11.084;2023-03-12T14:41:03;16.90;50.70
42097;DHT22;27754;45.414;11.084;2023-03-12T14:43:33;16.90;50.30
42097;DHT22;27754;45.414;11.084;2023-03-12T14:46:12;16.90;50.60
42097;DHT22;27754;45.414;11.084;2023-03-12T14:48:39;16.90;50.70
42097;DHT22;27754;45.414;11.084;2023-03-12T14:51:07;16.70;50.80
42097;DHT22;27754;45.414;11.084;2023-03-12T14:53:37;16.70;51.40
42097;DHT22;27754;45.414;11.084;2023-03-12T14:56:21;16.70;51.30
42097;DHT22;27754;45.414;11.084;2023-03-12T14:58:51;16.40;51.70
42097;DHT22;27754;45.414;11.084;2023-03-12T15:01:21;16.40;52.40
42097;DHT22;27754;45.414;11.084;2023-03-12T15:04:03;16.20;51.70
42097;DHT22;27754;45.414;11.084;2023-03-12T15:07:01;16.40;52.20
42097;DHT22;27754;45.414;11.084;2023-03-12T15:09:33;16.50;52.30
42097;DHT22;27754;45.414;11.084;2023-03-12T15:12:03;16.40;52.50
42097;DHT22;27754;45.414;11.084;2023-03-12T15:14:38;16.40;52.00
42097;DHT22;27754;45.414;11.084;2023-03-12T15:17:05;16.40;52.40
42097;DHT22;27754;45.414;11.084;2023-03-12T15:19:37;16.40;52.60
42097;DHT22;27754;45.414;11.084;2023-03-12T15:22:16;16.40;52.40
42097;DHT22;27754;45.414;11.084;2023-03-12T15:24:43;16.30;52.60
42097;DHT22;27754;45.414;11.084;2023-03-12T15:29:55;16.30;52.60
42097;DHT22;27754;45.414;11.084;2023-03-12T15:32:24;16.30;52.60
42097;DHT22;27754;45.414;11.084;2023-03-12T15:34:52;16.10;52.80
42097;DHT22;27754;45.414;11.084;2023-03-12T15:37:32;16.10;52.70
42097;DHT22;27754;45.414;11.084;2023-03-12T15:40:20;16.10;52.90
42097;DHT22;27754;45.414;11.084;2023-03-12T15:42:48;16.00;52.70
42097;DHT22;27754;45.414;11.084;2023-03-12T15:45:36;16.00;52.80
42097;DHT22;27754;45.414;11.084;2023-03-12T15:50:51;15.80;53.50
42097;DHT22;27754;45.414;11.084;2023-03-12T15:58:39;15.70;54.00
42097;DHT22;27754;45.414;11.084;2023-03-12T16:03:37;15.70;54.50
42097;DHT22;27754;45.414;11.084;2023-03-12T16:06:12;15.60;54.90
42097;DHT22;27754;45.414;11.084;2023-03-12T16:08:49;15.60;55.30
42097;DHT22;27754;45.414;11.084;2023-03-12T16:11:19;15.60;55.20
42097;DHT22;27754;45.414;11.084;2023-03-12T16:13:49;15.50;55.10
42097;DHT22;27754;45.414;11.084;2023-03-12T16:16:17;15.40;55.00
42097;DHT22;27754;45.414;11.084;2023-03-12T16:18:44;15.40;55.20
42097;DHT22;27754;45.414;11.084;2023-03-12T16:21:10;15.30;55.60
42097;DHT22;27754;45.414;11.084;2023-03-12T16:23:37;15.30;55.90
42097;DHT22;27754;45.414;11.084;2023-03-12T16:26:05;15.20;55.90
42097;DHT22;27754;45.414;11.084;2023-03-12T16:28:34;15.20;56.10
42097;DHT22;27754;45.414;11.084;2023-03-12T16:31:01;15.10;56.20
42097;DHT22;27754;45.414;11.084;2023-03-12T16:33:29;15.10;56.70
42097;DHT22;27754;45.414;11.084;2023-03-12T16:35:55;15.00;57.20
42097;DHT22;27754;45.414;11.084;2023-03-12T16:38:23;15.10;57.70
42097;DHT22;27754;45.414;11.084;2023-03-12T16:40:50;15.00;57.90
42097;DHT22;27754;45.414;11.084;2023-03-12T16:43:23;14.90;58.00
42097;DHT22;27754;45.414;11.084;2023-03-12T16:45:51;14.90;58.10
42097;DHT22;27754;45.414;11.084;2023-03-12T16:48:20;14.80;58.50
42097;DHT22;27754;45.414;11.084;2023-03-12T16:50:52;14.80;58.60
42097;DHT22;27754;45.414;11.084;2023-03-12T16:53:19;14.70;59.00
42097;DHT22;27754;45.414;11.084;2023-03-12T16:55:58;14.70;59.00
42097;DHT22;27754;45.414;11.084;2023-03-12T16:58:27;14.60;59.00
42097;DHT22;27754;45.414;11.084;2023-03-12T17:00:54;14.50;59.30
42097;DHT22;27754;45.414;11.084;2023-03-12T17:03:36;14.40;59.50
42097;DHT22;27754;45.414;11.084;2023-03-12T17:06:05;14.30;60.00
42097;DHT22;27754;45.414;11.084;2023-03-12T17:08:32;14.20;60.40
42097;DHT22;27754;45.414;11.084;2023-03-12T17:11:01;14.20;60.60
42097;DHT22;27754;45.414;11.084;2023-03-12T17:13:30;14.10;60.90
42097;DHT22;27754;45.414;11.084;2023-03-12T17:15:57;14.00;61.10
42097;DHT22;27754;45.414;11.084;2023-03-12T17:18:24;13.90;61.50
42097;DHT22;27754;45.414;11.084;2023-03-12T17:20:51;13.90;61.70
42097;DHT22;27754;45.414;11.084;2023-03-12T17:23:18;13.70;61.80
42097;DHT22;27754;45.414;11.084;2023-03-12T17:25:45;13.70;61.90
42097;DHT22;27754;45.414;11.084;2023-03-12T17:28:12;13.70;62.20
42097;DHT22;27754;45.414;11.084;2023-03-12T17:30:42;13.60;62.50
42097;DHT22;27754;45.414;11.084;2023-03-12T17:33:16;13.40;62.80
42097;DHT22;27754;45.414;11.084;2023-03-12T17:35:43;13.40;63.10